sensor_id;sensor_type;location;lat;lon;timestamp;P1;durP1;ratioP1;P2;durP2;ratioP2
16878;SDS011;8556;52.218;9.884;2023-04-24T00:02:01;1.03;;;1.03;;
16878;SDS011;8556;52.218;9.884;2023-04-24T00:04:30;1.47;;;1.30;;
16878;SDS011;8556;52.218;9.884;2023-04-24T00:06:56;2.37;;;1.40;;
16878;SDS011;8556;52.218;9.884;2023-04-24T00:09:25;2.37;;;1.30;;
16878;SDS011;8556;52.218;9.884;2023-04-24T00:11:52;1.60;;;1.10;;
16878;SDS011;8556;52.218;9.884;2023-04-24T00:14:19;1.20;;;1.20;;
16878;SDS011;8556;52.218;9.884;2023-04-24T00:16:49;1.57;;;1.30;;
16878;SDS011;8556;52.218;9.884;2023-04-24T00:19:15;1.07;;;1.00;;
16878;SDS011;8556;52.218;9.884;2023-04-24T00:21:44;2.20;;;1.10;;
16878;SDS011;8556;52.218;9.884;2023-04-24T00:24:10;3.13;;;1.33;;
16878;SDS011;8556;52.218;9.884;2023-04-24T00:26:37;1.10;;;1.00;;
16878;SDS011;8556;52.218;9.884;2023-04-24T00:29:04;1.50;;;1.40;;
16878;SDS011;8556;52.218;9.884;2023-04-24T00:31:31;1.50;;;1.40;;
16878;SDS011;8556;52.218;9.884;2023-04-24T00:33:59;1.60;;;1.50;;
16878;SDS011;8556;52.218;9.884;2023-04-24T00:36:26;1.73;;;1.33;;
16878;SDS011;8556;52.218;9.884;2023-04-24T00:38:54;1.93;;;1.50;;
16878;SDS011;8556;52.218;9.884;2023-04-24T00:41:21;1.93;;;1.37;;
16878;SDS011;8556;52.218;9.884;2023-04-24T00:43:48;2.00;;;1.80;;
16878;SDS011;8556;52.218;9.884;2023-04-24T00:46:15;1.80;;;1.67;;
16878;SDS011;8556;52.218;9.884;2023-04-24T00:48:42;1.70;;;1.60;;
16878;SDS011;8556;52.218;9.884;2023-04-24T00:51:09;1.80;;;1.47;;
16878;SDS011;8556;52.218;9.884;2023-04-24T00:53:36;1.80;;;1.70;;
16878;SDS011;8556;52.218;9.884;2023-04-24T00:56:04;1.80;;;1.70;;
16878;SDS011;8556;52.218;9.884;2023-04-24T00:58:32;2.57;;;1.57;;
16878;SDS011;8556;52.218;9.884;2023-04-24T01:00:58;2.80;;;1.60;;
16878;SDS011;8556;52.218;9.884;2023-04-24T01:03:28;1.40;;;1.30;;
16878;SDS011;8556;52.218;9.884;2023-04-24T01:05:56;1.60;;;1.50;;
16878;SDS011;8556;52.218;9.884;2023-04-24T01:08:24;1.70;;;1.60;;
16878;SDS011;8556;52.218;9.884;2023-04-24T01:10:52;1.60;;;1.50;;
16878;SDS011;8556;52.218;9.884;2023-04-24T01:13:20;2.47;;;1.70;;
16878;SDS011;8556;52.218;9.884;2023-04-24T01:15:47;3.53;;;1.50;;
16878;SDS011;8556;52.218;9.884;2023-04-24T01:18:14;1.47;;;1.37;;
16878;SDS011;8556;52.218;9.884;2023-04-24T01:20:42;1.77;;;1.60;;
16878;SDS011;8556;52.218;9.884;2023-04-24T01:23:11;1.77;;;1.63;;
16878;SDS011;8556;52.218;9.884;2023-04-24T01:25:38;2.33;;;1.40;;
16878;SDS011;8556;52.218;9.884;2023-04-24T01:28:05;2.23;;;1.83;;
16878;SDS011;8556;52.218;9.884;2023-04-24T01:30:32;2.10;;;1.90;;
16878;SDS011;8556;52.218;9.884;2023-04-24T01:32:59;3.23;;;2.23;;
16878;SDS011;8556;52.218;9.884;2023-04-24T01:35:27;2.73;;;1.90;;
16878;SDS011;8556;52.218;9.884;2023-04-24T01:37:54;1.83;;;1.73;;
16878;SDS011;8556;52.218;9.884;2023-04-24T01:40:22;1.80;;;1.70;;
16878;SDS011;8556;52.218;9.884;2023-04-24T01:42:49;1.80;;;1.60;;
16878;SDS011;8556;52.218;9.884;2023-04-24T01:45:17;2.00;;;1.80;;
16878;SDS011;8556;52.218;9.884;2023-04-24T01:47:44;3.10;;;1.73;;
16878;SDS011;8556;52.218;9.884;2023-04-24T01:50:12;3.17;;;1.70;;
16878;SDS011;8556;52.218;9.884;2023-04-24T01:52:39;1.70;;;1.60;;
16878;SDS011;8556;52.218;9.884;2023-04-24T01:55:06;2.63;;;2.23;;
16878;SDS011;8556;52.218;9.884;2023-04-24T01:57:35;5.23;;;1.80;;
16878;SDS011;8556;52.218;9.884;2023-04-24T02:00:02;3.37;;;1.63;;
16878;SDS011;8556;52.218;9.884;2023-04-24T02:02:30;2.00;;;1.80;;
16878;SDS011;8556;52.218;9.884;2023-04-24T02:04:57;2.53;;;1.90;;
16878;SDS011;8556;52.218;9.884;2023-04-24T02:07:24;3.00;;;1.73;;
16878;SDS011;8556;52.218;9.884;2023-04-24T02:09:51;1.50;;;1.40;;
16878;SDS011;8556;52.218;9.884;2023-04-24T02:12:18;1.67;;;1.57;;
16878;SDS011;8556;52.218;9.884;2023-04-24T02:14:46;1.77;;;1.50;;
16878;SDS011;8556;52.218;9.884;2023-04-24T02:17:13;1.63;;;1.53;;
16878;SDS011;8556;52.218;9.884;2023-04-24T02:19:41;1.47;;;1.37;;
16878;SDS011;8556;52.218;9.884;2023-04-24T02:22:08;1.87;;;1.47;;
16878;SDS011;8556;52.218;9.884;2023-04-24T02:24:35;1.80;;;1.50;;
16878;SDS011;8556;52.218;9.884;2023-04-24T02:27:02;1.60;;;1.50;;
16878;SDS011;8556;52.218;9.884;2023-04-24T02:29:29;2.97;;;2.40;;
16878;SDS011;8556;52.218;9.884;2023-04-24T02:31:58;1.67;;;1.57;;
16878;SDS011;8556;52.218;9.884;2023-04-24T02:34:25;1.83;;;1.63;;
16878;SDS011;8556;52.218;9.884;2023-04-24T02:36:51;1.20;;;1.20;;
16878;SDS011;8556;52.218;9.884;2023-04-24T02:39:19;1.47;;;1.30;;
16878;SDS011;8556;52.218;9.884;2023-04-24T02:41:46;1.63;;;1.30;;
16878;SDS011;8556;52.218;9.884;2023-04-24T02:44:13;1.80;;;1.30;;
16878;SDS011;8556;52.218;9.884;2023-04-24T02:46:40;1.10;;;1.10;;
16878;SDS011;8556;52.218;9.884;2023-04-24T02:49:08;1.47;;;1.30;;
16878;SDS011;8556;52.218;9.884;2023-04-24T02:51:36;1.13;;;1.03;;
16878;SDS011;8556;52.218;9.884;2023-04-24T02:54:06;1.43;;;0.90;;
16878;SDS011;8556;52.218;9.884;2023-04-24T02:56:33;1.33;;;1.10;;
16878;SDS011;8556;52.218;9.884;2023-04-24T02:59:00;1.40;;;1.30;;
16878;SDS011;8556;52.218;9.884;2023-04-24T03:01:26;1.20;;;1.10;;
16878;SDS011;8556;52.218;9.884;2023-04-24T03:03:53;1.30;;;1.10;;
16878;SDS011;8556;52.218;9.884;2023-04-24T03:06:21;1.30;;;1.20;;
16878;SDS011;8556;52.218;9.884;2023-04-24T03:08:48;1.23;;;1.13;;
16878;SDS011;8556;52.218;9.884;2023-04-24T03:11:15;1.40;;;1.30;;
16878;SDS011;8556;52.218;9.884;2023-04-24T03:13:42;1.33;;;1.23;;
16878;SDS011;8556;52.218;9.884;2023-04-24T03:16:09;1.00;;;1.00;;
16878;SDS011;8556;52.218;9.884;2023-04-24T03:18:35;1.10;;;1.10;;
16878;SDS011;8556;52.218;9.884;2023-04-24T03:21:02;1.03;;;1.03;;
16878;SDS011;8556;52.218;9.884;2023-04-24T03:23:31;1.27;;;1.00;;
16878;SDS011;8556;52.218;9.884;2023-04-24T03:25:57;4.77;;;2.33;;
16878;SDS011;8556;52.218;9.884;2023-04-24T03:28:24;1.50;;;1.40;;
16878;SDS011;8556;52.218;9.884;2023-04-24T03:30:51;1.50;;;1.20;;
16878;SDS011;8556;52.218;9.884;2023-04-24T03:33:18;1.70;;;1.60;;
16878;SDS011;8556;52.218;9.884;2023-04-24T03:35:45;4.20;;;1.40;;
16878;SDS011;8556;52.218;9.884;2023-04-24T03:38:12;1.10;;;1.00;;
16878;SDS011;8556;52.218;9.884;2023-04-24T03:40:40;2.57;;;1.10;;
16878;SDS011;8556;52.218;9.884;2023-04-24T03:43:07;1.40;;;1.20;;
16878;SDS011;8556;52.218;9.884;2023-04-24T03:45:33;1.10;;;1.03;;
16878;SDS011;8556;52.218;9.884;2023-04-24T03:48:00;1.50;;;1.10;;
16878;SDS011;8556;52.218;9.884;2023-04-24T03:50:27;1.67;;;0.97;;
16878;SDS011;8556;52.218;9.884;2023-04-24T03:52:54;3.70;;;1.07;;
16878;SDS011;8556;52.218;9.884;2023-04-24T03:55:21;1.10;;;1.10;;
16878;SDS011;8556;52.218;9.884;2023-04-24T03:57:49;0.90;;;0.90;;
16878;SDS011;8556;52.218;9.884;2023-04-24T04:00:16;2.13;;;1.13;;
16878;SDS011;8556;52.218;9.884;2023-04-24T04:02:43;1.30;;;1.20;;
16878;SDS011;8556;52.218;9.884;2023-04-24T04:05:10;1.60;;;1.13;;
16878;SDS011;8556;52.218;9.884;2023-04-24T04:07:37;1.40;;;1.23;;
16878;SDS011;8556;52.218;9.884;2023-04-24T04:10:04;1.47;;;1.37;;
16878;SDS011;8556;52.218;9.884;2023-04-24T04:12:32;1.70;;;1.23;;
16878;SDS011;8556;52.218;9.884;2023-04-24T04:15:00;1.50;;;1.40;;
16878;SDS011;8556;52.218;9.884;2023-04-24T04:17:27;3.47;;;1.03;;
16878;SDS011;8556;52.218;9.884;2023-04-24T04:19:54;1.10;;;1.00;;
16878;SDS011;8556;52.218;9.884;2023-04-24T04:22:21;0.87;;;0.87;;
16878;SDS011;8556;52.218;9.884;2023-04-24T04:24:48;1.17;;;1.07;;
16878;SDS011;8556;52.218;9.884;2023-04-24T04:27:16;1.60;;;1.10;;
16878;SDS011;8556;52.218;9.884;2023-04-24T04:29:43;1.20;;;1.10;;
16878;SDS011;8556;52.218;9.884;2023-04-24T04:32:11;2.80;;;0.97;;
16878;SDS011;8556;52.218;9.884;2023-04-24T04:34:38;0.67;;;0.67;;
16878;SDS011;8556;52.218;9.884;2023-04-24T04:37:07;1.20;;;1.00;;
16878;SDS011;8556;52.218;9.884;2023-04-24T04:39:36;1.10;;;1.00;;
16878;SDS011;8556;52.218;9.884;2023-04-24T04:42:03;1.43;;;0.83;;
16878;SDS011;8556;52.218;9.884;2023-04-24T04:44:29;1.63;;;0.90;;
16878;SDS011;8556;52.218;9.884;2023-04-24T04:46:57;1.27;;;0.90;;
16878;SDS011;8556;52.218;9.884;2023-04-24T04:49:26;1.40;;;1.00;;
16878;SDS011;8556;52.218;9.884;2023-04-24T04:51:53;2.53;;;1.10;;
16878;SDS011;8556;52.218;9.884;2023-04-24T04:54:20;1.00;;;0.90;;
16878;SDS011;8556;52.218;9.884;2023-04-24T04:56:47;0.80;;;0.80;;
16878;SDS011;8556;52.218;9.884;2023-04-24T04:59:16;0.90;;;0.83;;
16878;SDS011;8556;52.218;9.884;2023-04-24T05:01:42;1.90;;;0.97;;
16878;SDS011;8556;52.218;9.884;2023-04-24T05:04:09;1.27;;;1.00;;
16878;SDS011;8556;52.218;9.884;2023-04-24T05:06:38;0.90;;;0.90;;
16878;SDS011;8556;52.218;9.884;2023-04-24T05:09:05;1.17;;;1.13;;
16878;SDS011;8556;52.218;9.884;2023-04-24T05:11:32;1.27;;;1.07;;
16878;SDS011;8556;52.218;9.884;2023-04-24T05:13:59;1.10;;;0.97;;
16878;SDS011;8556;52.218;9.884;2023-04-24T05:16:26;1.10;;;1.00;;
16878;SDS011;8556;52.218;9.884;2023-04-24T05:18:52;1.10;;;1.00;;
16878;SDS011;8556;52.218;9.884;2023-04-24T05:21:19;1.97;;;1.00;;
16878;SDS011;8556;52.218;9.884;2023-04-24T05:23:47;1.00;;;0.80;;
16878;SDS011;8556;52.218;9.884;2023-04-24T05:26:14;2.40;;;1.00;;
16878;SDS011;8556;52.218;9.884;2023-04-24T05:28:42;0.83;;;0.83;;
16878;SDS011;8556;52.218;9.884;2023-04-24T05:31:09;0.90;;;0.90;;
16878;SDS011;8556;52.218;9.884;2023-04-24T05:33:37;1.90;;;0.97;;
16878;SDS011;8556;52.218;9.884;2023-04-24T05:36:04;1.17;;;1.10;;
16878;SDS011;8556;52.218;9.884;2023-04-24T05:38:32;0.90;;;0.90;;
16878;SDS011;8556;52.218;9.884;2023-04-24T05:41:00;1.40;;;0.93;;
16878;SDS011;8556;52.218;9.884;2023-04-24T05:43:27;0.93;;;0.93;;
16878;SDS011;8556;52.218;9.884;2023-04-24T05:45:54;1.30;;;0.93;;
16878;SDS011;8556;52.218;9.884;2023-04-24T05:48:21;0.90;;;0.80;;
16878;SDS011;8556;52.218;9.884;2023-04-24T05:50:48;2.00;;;0.70;;
16878;SDS011;8556;52.218;9.884;2023-04-24T05:53:15;1.80;;;1.20;;
16878;SDS011;8556;52.218;9.884;2023-04-24T05:55:42;1.53;;;0.73;;
16878;SDS011;8556;52.218;9.884;2023-04-24T05:58:10;1.20;;;0.90;;
16878;SDS011;8556;52.218;9.884;2023-04-24T06:00:38;0.83;;;0.83;;
16878;SDS011;8556;52.218;9.884;2023-04-24T06:03:07;0.67;;;0.67;;
16878;SDS011;8556;52.218;9.884;2023-04-24T06:05:34;1.03;;;0.70;;
16878;SDS011;8556;52.218;9.884;2023-04-24T06:08:01;0.80;;;0.80;;
16878;SDS011;8556;52.218;9.884;2023-04-24T06:10:28;3.77;;;1.00;;
16878;SDS011;8556;52.218;9.884;2023-04-24T06:12:55;0.80;;;0.80;;
16878;SDS011;8556;52.218;9.884;2023-04-24T06:15:26;0.87;;;0.70;;
16878;SDS011;8556;52.218;9.884;2023-04-24T06:17:54;2.20;;;0.90;;
16878;SDS011;8556;52.218;9.884;2023-04-24T06:20:21;0.73;;;0.73;;
16878;SDS011;8556;52.218;9.884;2023-04-24T06:22:48;0.80;;;0.80;;
16878;SDS011;8556;52.218;9.884;2023-04-24T06:25:15;3.90;;;1.30;;
16878;SDS011;8556;52.218;9.884;2023-04-24T06:27:41;2.03;;;0.90;;
16878;SDS011;8556;52.218;9.884;2023-04-24T06:30:09;1.00;;;0.90;;
16878;SDS011;8556;52.218;9.884;2023-04-24T06:32:37;1.00;;;1.00;;
16878;SDS011;8556;52.218;9.884;2023-04-24T06:35:05;0.90;;;0.90;;
16878;SDS011;8556;52.218;9.884;2023-04-24T06:37:33;1.20;;;1.10;;
16878;SDS011;8556;52.218;9.884;2023-04-24T06:40:00;1.20;;;1.10;;
16878;SDS011;8556;52.218;9.884;2023-04-24T06:42:26;1.60;;;1.50;;
16878;SDS011;8556;52.218;9.884;2023-04-24T06:44:53;2.47;;;1.50;;
16878;SDS011;8556;52.218;9.884;2023-04-24T06:47:20;1.30;;;1.20;;
16878;SDS011;8556;52.218;9.884;2023-04-24T06:49:48;2.00;;;1.43;;
16878;SDS011;8556;52.218;9.884;2023-04-24T06:52:16;1.30;;;1.20;;
16878;SDS011;8556;52.218;9.884;2023-04-24T06:54:42;1.70;;;1.60;;
16878;SDS011;8556;52.218;9.884;2023-04-24T06:57:09;1.70;;;1.60;;
16878;SDS011;8556;52.218;9.884;2023-04-24T06:59:36;2.73;;;1.97;;
16878;SDS011;8556;52.218;9.884;2023-04-24T07:02:03;3.87;;;2.20;;
16878;SDS011;8556;52.218;9.884;2023-04-24T07:04:31;2.67;;;2.13;;
16878;SDS011;8556;52.218;9.884;2023-04-24T07:07:01;2.70;;;2.10;;
16878;SDS011;8556;52.218;9.884;2023-04-24T07:09:29;2.30;;;2.10;;
16878;SDS011;8556;52.218;9.884;2023-04-24T07:11:56;4.00;;;2.67;;
16878;SDS011;8556;52.218;9.884;2023-04-24T07:14:23;3.13;;;2.83;;
16878;SDS011;8556;52.218;9.884;2023-04-24T07:16:50;2.90;;;2.30;;
16878;SDS011;8556;52.218;9.884;2023-04-24T07:19:17;3.90;;;2.90;;
16878;SDS011;8556;52.218;9.884;2023-04-24T07:21:44;3.47;;;3.13;;
16878;SDS011;8556;52.218;9.884;2023-04-24T07:24:12;4.87;;;3.53;;
16878;SDS011;8556;52.218;9.884;2023-04-24T07:26:39;4.77;;;4.20;;
16878;SDS011;8556;52.218;9.884;2023-04-24T07:29:06;6.53;;;4.73;;
16878;SDS011;8556;52.218;9.884;2023-04-24T07:31:32;6.77;;;5.27;;
16878;SDS011;8556;52.218;9.884;2023-04-24T07:33:59;7.60;;;5.20;;
16878;SDS011;8556;52.218;9.884;2023-04-24T07:36:26;8.80;;;5.40;;
16878;SDS011;8556;52.218;9.884;2023-04-24T07:38:53;6.67;;;5.33;;
16878;SDS011;8556;52.218;9.884;2023-04-24T07:41:22;6.97;;;5.20;;
16878;SDS011;8556;52.218;9.884;2023-04-24T07:43:50;6.80;;;5.17;;
16878;SDS011;8556;52.218;9.884;2023-04-24T07:46:17;7.57;;;5.20;;
16878;SDS011;8556;52.218;9.884;2023-04-24T07:48:44;5.93;;;4.97;;
16878;SDS011;8556;52.218;9.884;2023-04-24T07:51:13;8.17;;;5.20;;
16878;SDS011;8556;52.218;9.884;2023-04-24T07:53:40;4.90;;;4.40;;
16878;SDS011;8556;52.218;9.884;2023-04-24T07:56:07;6.40;;;4.70;;
16878;SDS011;8556;52.218;9.884;2023-04-24T07:58:35;5.67;;;4.40;;
16878;SDS011;8556;52.218;9.884;2023-04-24T08:01:02;7.40;;;5.27;;
16878;SDS011;8556;52.218;9.884;2023-04-24T08:03:28;7.47;;;5.47;;
16878;SDS011;8556;52.218;9.884;2023-04-24T08:05:55;6.80;;;5.43;;
16878;SDS011;8556;52.218;9.884;2023-04-24T08:08:22;8.10;;;5.60;;
16878;SDS011;8556;52.218;9.884;2023-04-24T08:10:49;8.00;;;6.10;;
16878;SDS011;8556;52.218;9.884;2023-04-24T08:13:16;11.30;;;6.73;;
16878;SDS011;8556;52.218;9.884;2023-04-24T08:15:44;9.70;;;6.17;;
16878;SDS011;8556;52.218;9.884;2023-04-24T08:18:11;8.77;;;5.50;;
16878;SDS011;8556;52.218;9.884;2023-04-24T08:20:38;9.33;;;5.40;;
16878;SDS011;8556;52.218;9.884;2023-04-24T08:23:05;7.67;;;5.97;;
16878;SDS011;8556;52.218;9.884;2023-04-24T08:25:32;8.37;;;5.77;;
16878;SDS011;8556;52.218;9.884;2023-04-24T08:28:00;9.00;;;6.40;;
16878;SDS011;8556;52.218;9.884;2023-04-24T08:30:28;9.03;;;5.77;;
16878;SDS011;8556;52.218;9.884;2023-04-24T08:32:56;7.37;;;5.43;;
16878;SDS011;8556;52.218;9.884;2023-04-24T08:35:23;7.45;;;5.55;;
16878;SDS011;8556;52.218;9.884;2023-04-24T08:37:51;7.30;;;5.37;;
16878;SDS011;8556;52.218;9.884;2023-04-24T08:40:18;7.63;;;5.63;;
16878;SDS011;8556;52.218;9.884;2023-04-24T08:42:52;8.07;;;5.30;;
16878;SDS011;8556;52.218;9.884;2023-04-24T08:45:20;6.90;;;5.20;;
16878;SDS011;8556;52.218;9.884;2023-04-24T08:47:47;8.73;;;5.45;;
16878;SDS011;8556;52.218;9.884;2023-04-24T08:50:16;6.43;;;4.87;;
16878;SDS011;8556;52.218;9.884;2023-04-24T08:52:43;6.87;;;5.20;;
16878;SDS011;8556;52.218;9.884;2023-04-24T08:55:10;6.57;;;4.80;;
16878;SDS011;8556;52.218;9.884;2023-04-24T08:57:37;6.97;;;4.93;;
16878;SDS011;8556;52.218;9.884;2023-04-24T09:00:06;5.23;;;4.50;;
16878;SDS011;8556;52.218;9.884;2023-04-24T09:02:33;5.63;;;4.33;;
16878;SDS011;8556;52.218;9.884;2023-04-24T09:05:00;6.87;;;4.87;;
16878;SDS011;8556;52.218;9.884;2023-04-24T09:07:32;6.30;;;4.87;;
16878;SDS011;8556;52.218;9.884;2023-04-24T09:10:02;7.10;;;5.43;;
16878;SDS011;8556;52.218;9.884;2023-04-24T09:12:29;10.37;;;5.80;;
16878;SDS011;8556;52.218;9.884;2023-04-24T09:14:56;7.63;;;4.73;;
16878;SDS011;8556;52.218;9.884;2023-04-24T09:17:23;6.83;;;4.43;;
16878;SDS011;8556;52.218;9.884;2023-04-24T09:19:53;4.33;;;3.63;;
16878;SDS011;8556;52.218;9.884;2023-04-24T09:22:20;4.07;;;3.50;;
16878;SDS011;8556;52.218;9.884;2023-04-24T09:24:49;4.23;;;3.43;;
16878;SDS011;8556;52.218;9.884;2023-04-24T09:27:28;5.33;;;3.27;;
16878;SDS011;8556;52.218;9.884;2023-04-24T09:29:55;4.93;;;4.27;;
16878;SDS011;8556;52.218;9.884;2023-04-24T09:32:22;4.60;;;3.63;;
16878;SDS011;8556;52.218;9.884;2023-04-24T09:35:04;4.47;;;3.40;;
16878;SDS011;8556;52.218;9.884;2023-04-24T09:37:34;5.67;;;4.53;;
16878;SDS011;8556;52.218;9.884;2023-04-24T09:40:10;3.93;;;3.30;;
16878;SDS011;8556;52.218;9.884;2023-04-24T09:42:38;6.83;;;4.00;;
16878;SDS011;8556;52.218;9.884;2023-04-24T09:45:08;4.10;;;3.37;;
16878;SDS011;8556;52.218;9.884;2023-04-24T09:47:36;4.90;;;3.43;;
16878;SDS011;8556;52.218;9.884;2023-04-24T09:50:09;3.73;;;2.93;;
16878;SDS011;8556;52.218;9.884;2023-04-24T09:52:39;4.43;;;3.40;;
16878;SDS011;8556;52.218;9.884;2023-04-24T09:55:11;3.50;;;3.10;;
16878;SDS011;8556;52.218;9.884;2023-04-24T09:57:49;2.60;;;2.33;;
16878;SDS011;8556;52.218;9.884;2023-04-24T10:00:18;3.17;;;2.60;;
16878;SDS011;8556;52.218;9.884;2023-04-24T10:02:49;2.77;;;2.57;;
16878;SDS011;8556;52.218;9.884;2023-04-24T10:05:18;3.10;;;2.80;;
16878;SDS011;8556;52.218;9.884;2023-04-24T10:07:55;4.33;;;2.80;;
16878;SDS011;8556;52.218;9.884;2023-04-24T10:10:24;2.57;;;2.37;;
16878;SDS011;8556;52.218;9.884;2023-04-24T10:12:52;3.23;;;2.43;;
16878;SDS011;8556;52.218;9.884;2023-04-24T10:15:20;3.03;;;2.50;;
16878;SDS011;8556;52.218;9.884;2023-04-24T10:17:47;3.20;;;2.87;;
16878;SDS011;8556;52.218;9.884;2023-04-24T10:20:18;4.23;;;2.80;;
16878;SDS011;8556;52.218;9.884;2023-04-24T10:22:46;3.20;;;2.63;;
16878;SDS011;8556;52.218;9.884;2023-04-24T10:25:16;3.50;;;2.67;;
16878;SDS011;8556;52.218;9.884;2023-04-24T10:27:46;4.63;;;2.80;;
16878;SDS011;8556;52.218;9.884;2023-04-24T10:30:14;2.93;;;2.60;;
16878;SDS011;8556;52.218;9.884;2023-04-24T10:32:41;2.97;;;2.60;;
16878;SDS011;8556;52.218;9.884;2023-04-24T10:35:08;2.90;;;2.60;;
16878;SDS011;8556;52.218;9.884;2023-04-24T10:37:36;3.27;;;2.70;;
16878;SDS011;8556;52.218;9.884;2023-04-24T10:40:07;4.37;;;2.83;;
16878;SDS011;8556;52.218;9.884;2023-04-24T10:42:39;3.57;;;2.60;;
16878;SDS011;8556;52.218;9.884;2023-04-24T10:45:17;3.60;;;2.70;;
16878;SDS011;8556;52.218;9.884;2023-04-24T10:47:51;4.07;;;3.10;;
16878;SDS011;8556;52.218;9.884;2023-04-24T10:50:18;3.37;;;2.87;;
16878;SDS011;8556;52.218;9.884;2023-04-24T10:52:46;3.63;;;2.73;;
16878;SDS011;8556;52.218;9.884;2023-04-24T10:55:16;3.53;;;2.63;;
16878;SDS011;8556;52.218;9.884;2023-04-24T10:58:03;4.20;;;2.87;;
16878;SDS011;8556;52.218;9.884;2023-04-24T11:00:32;3.17;;;2.63;;
16878;SDS011;8556;52.218;9.884;2023-04-24T11:03:03;3.80;;;2.93;;
16878;SDS011;8556;52.218;9.884;2023-04-24T11:05:50;3.43;;;2.90;;
16878;SDS011;8556;52.218;9.884;2023-04-24T11:08:26;2.63;;;2.40;;
16878;SDS011;8556;52.218;9.884;2023-04-24T11:10:55;2.93;;;2.50;;
16878;SDS011;8556;52.218;9.884;2023-04-24T11:13:24;3.00;;;2.70;;
16878;SDS011;8556;52.218;9.884;2023-04-24T11:18:49;3.37;;;2.10;;
16878;SDS011;8556;52.218;9.884;2023-04-24T11:21:19;2.40;;;2.20;;
16878;SDS011;8556;52.218;9.884;2023-04-24T11:23:46;2.67;;;1.87;;
16878;SDS011;8556;52.218;9.884;2023-04-24T11:26:17;1.70;;;1.60;;
16878;SDS011;8556;52.218;9.884;2023-04-24T11:28:45;2.40;;;1.63;;
16878;SDS011;8556;52.218;9.884;2023-04-24T11:34:07;1.60;;;1.50;;
16878;SDS011;8556;52.218;9.884;2023-04-24T11:36:35;1.83;;;1.73;;
16878;SDS011;8556;52.218;9.884;2023-04-24T11:39:03;1.37;;;1.30;;
16878;SDS011;8556;52.218;9.884;2023-04-24T11:41:30;1.80;;;1.70;;
16878;SDS011;8556;52.218;9.884;2023-04-24T11:43:57;3.20;;;1.80;;
16878;SDS011;8556;52.218;9.884;2023-04-24T11:46:27;2.97;;;1.80;;
16878;SDS011;8556;52.218;9.884;2023-04-24T11:48:56;2.80;;;1.73;;
16878;SDS011;8556;52.218;9.884;2023-04-24T11:51:24;2.63;;;2.10;;
16878;SDS011;8556;52.218;9.884;2023-04-24T11:53:52;1.67;;;1.57;;
16878;SDS011;8556;52.218;9.884;2023-04-24T11:56:20;2.47;;;1.70;;
16878;SDS011;8556;52.218;9.884;2023-04-24T11:58:47;1.87;;;1.77;;
16878;SDS011;8556;52.218;9.884;2023-04-24T12:01:14;2.30;;;1.60;;
16878;SDS011;8556;52.218;9.884;2023-04-24T12:03:46;1.90;;;1.80;;
16878;SDS011;8556;52.218;9.884;2023-04-24T12:06:16;1.87;;;1.40;;
16878;SDS011;8556;52.218;9.884;2023-04-24T12:08:45;1.83;;;1.73;;
16878;SDS011;8556;52.218;9.884;2023-04-24T12:11:14;1.80;;;1.70;;
16878;SDS011;8556;52.218;9.884;2023-04-24T12:13:43;1.93;;;1.83;;
16878;SDS011;8556;52.218;9.884;2023-04-24T12:16:10;2.90;;;2.07;;
16878;SDS011;8556;52.218;9.884;2023-04-24T12:18:41;2.50;;;2.10;;
16878;SDS011;8556;52.218;9.884;2023-04-24T12:21:20;2.00;;;1.90;;
16878;SDS011;8556;52.218;9.884;2023-04-24T12:23:50;1.40;;;1.30;;
16878;SDS011;8556;52.218;9.884;2023-04-24T12:26:17;0.70;;;0.70;;
16878;SDS011;8556;52.218;9.884;2023-04-24T12:28:46;0.87;;;0.87;;
16878;SDS011;8556;52.218;9.884;2023-04-24T12:31:14;1.10;;;1.03;;
16878;SDS011;8556;52.218;9.884;2023-04-24T12:33:41;2.80;;;1.40;;
16878;SDS011;8556;52.218;9.884;2023-04-24T12:36:09;1.67;;;1.57;;
16878;SDS011;8556;52.218;9.884;2023-04-24T12:38:39;1.80;;;1.70;;
16878;SDS011;8556;52.218;9.884;2023-04-24T12:41:06;2.10;;;2.00;;
16878;SDS011;8556;52.218;9.884;2023-04-24T12:43:34;3.40;;;2.50;;
16878;SDS011;8556;52.218;9.884;2023-04-24T12:46:01;2.20;;;2.07;;
16878;SDS011;8556;52.218;9.884;2023-04-24T12:48:29;2.30;;;2.10;;
16878;SDS011;8556;52.218;9.884;2023-04-24T12:50:56;2.13;;;2.00;;
16878;SDS011;8556;52.218;9.884;2023-04-24T12:53:26;2.00;;;1.90;;
16878;SDS011;8556;52.218;9.884;2023-04-24T12:55:55;2.00;;;1.87;;
16878;SDS011;8556;52.218;9.884;2023-04-24T12:58:23;1.97;;;1.77;;
16878;SDS011;8556;52.218;9.884;2023-04-24T13:00:50;1.57;;;1.47;;
16878;SDS011;8556;52.218;9.884;2023-04-24T13:03:17;2.00;;;1.77;;
16878;SDS011;8556;52.218;9.884;2023-04-24T13:05:44;1.93;;;1.70;;
16878;SDS011;8556;52.218;9.884;2023-04-24T13:08:11;2.70;;;1.50;;
16878;SDS011;8556;52.218;9.884;2023-04-24T13:10:39;2.47;;;1.73;;
16878;SDS011;8556;52.218;9.884;2023-04-24T13:13:07;2.67;;;2.00;;
16878;SDS011;8556;52.218;9.884;2023-04-24T13:15:34;1.70;;;1.53;;
16878;SDS011;8556;52.218;9.884;2023-04-24T13:18:01;2.77;;;1.27;;
16878;SDS011;8556;52.218;9.884;2023-04-24T13:20:28;2.17;;;1.70;;
16878;SDS011;8556;52.218;9.884;2023-04-24T13:22:55;2.00;;;1.50;;
16878;SDS011;8556;52.218;9.884;2023-04-24T13:25:22;1.30;;;1.20;;
16878;SDS011;8556;52.218;9.884;2023-04-24T13:27:50;1.30;;;1.20;;
16878;SDS011;8556;52.218;9.884;2023-04-24T13:30:18;2.60;;;1.40;;
16878;SDS011;8556;52.218;9.884;2023-04-24T13:32:45;1.33;;;1.23;;
16878;SDS011;8556;52.218;9.884;2023-04-24T13:35:12;1.30;;;1.20;;
16878;SDS011;8556;52.218;9.884;2023-04-24T13:37:39;1.17;;;1.17;;
16878;SDS011;8556;52.218;9.884;2023-04-24T13:40:06;1.17;;;1.07;;
16878;SDS011;8556;52.218;9.884;2023-04-24T13:42:34;1.40;;;1.30;;
16878;SDS011;8556;52.218;9.884;2023-04-24T13:45:01;1.63;;;1.10;;
16878;SDS011;8556;52.218;9.884;2023-04-24T13:47:29;1.23;;;1.13;;
16878;SDS011;8556;52.218;9.884;2023-04-24T13:49:56;1.30;;;1.20;;
16878;SDS011;8556;52.218;9.884;2023-04-24T13:52:23;1.17;;;1.07;;
16878;SDS011;8556;52.218;9.884;2023-04-24T13:54:50;1.70;;;1.60;;
16878;SDS011;8556;52.218;9.884;2023-04-24T13:57:18;1.00;;;1.00;;
16878;SDS011;8556;52.218;9.884;2023-04-24T13:59:46;1.10;;;1.00;;
16878;SDS011;8556;52.218;9.884;2023-04-24T14:02:13;1.30;;;1.20;;
16878;SDS011;8556;52.218;9.884;2023-04-24T14:04:42;1.50;;;1.40;;
16878;SDS011;8556;52.218;9.884;2023-04-24T14:07:09;1.07;;;0.80;;
16878;SDS011;8556;52.218;9.884;2023-04-24T14:09:36;1.20;;;0.80;;
16878;SDS011;8556;52.218;9.884;2023-04-24T14:12:02;0.50;;;0.50;;
16878;SDS011;8556;52.218;9.884;2023-04-24T14:14:29;1.00;;;0.90;;
16878;SDS011;8556;52.218;9.884;2023-04-24T14:16:56;2.00;;;1.80;;
16878;SDS011;8556;52.218;9.884;2023-04-24T14:19:23;0.70;;;0.70;;
16878;SDS011;8556;52.218;9.884;2023-04-24T14:21:51;0.93;;;0.53;;
16878;SDS011;8556;52.218;9.884;2023-04-24T14:24:18;0.67;;;0.40;;
16878;SDS011;8556;52.218;9.884;2023-04-24T14:26:45;1.43;;;0.70;;
16878;SDS011;8556;52.218;9.884;2023-04-24T14:29:12;0.73;;;0.73;;
16878;SDS011;8556;52.218;9.884;2023-04-24T14:31:39;1.17;;;1.07;;
16878;SDS011;8556;52.218;9.884;2023-04-24T14:34:06;1.33;;;1.00;;
16878;SDS011;8556;52.218;9.884;2023-04-24T14:36:33;0.93;;;0.90;;
16878;SDS011;8556;52.218;9.884;2023-04-24T14:39:01;1.07;;;0.97;;
16878;SDS011;8556;52.218;9.884;2023-04-24T14:41:31;3.13;;;1.30;;
16878;SDS011;8556;52.218;9.884;2023-04-24T14:44:00;1.20;;;1.10;;
16878;SDS011;8556;52.218;9.884;2023-04-24T14:46:27;1.40;;;1.30;;
16878;SDS011;8556;52.218;9.884;2023-04-24T14:48:55;1.63;;;1.40;;
16878;SDS011;8556;52.218;9.884;2023-04-24T14:51:22;1.60;;;1.50;;
16878;SDS011;8556;52.218;9.884;2023-04-24T14:53:49;1.90;;;1.50;;
16878;SDS011;8556;52.218;9.884;2023-04-24T14:56:17;1.80;;;1.70;;
16878;SDS011;8556;52.218;9.884;2023-04-24T14:58:44;2.33;;;2.00;;
16878;SDS011;8556;52.218;9.884;2023-04-24T15:01:11;2.87;;;2.10;;
16878;SDS011;8556;52.218;9.884;2023-04-24T15:03:37;2.97;;;2.33;;
16878;SDS011;8556;52.218;9.884;2023-04-24T15:06:04;3.57;;;2.23;;
16878;SDS011;8556;52.218;9.884;2023-04-24T15:08:32;3.60;;;1.97;;
16878;SDS011;8556;52.218;9.884;2023-04-24T15:10:58;7.07;;;2.60;;